Time;durP1;ratioP1;P1;durP2;ratioP2;P2;SDS_P1;SDS_P2;PMS_P1;PMS_P2;Temp;Humidity;BMP_temperature;BMP_pressure;BME280_temperature;BME280_humidity;BME280_pressure;Samples;Min_cycle;Max_cycle;Signal;HPM_P1;HPM_P2
2024/03/27 00:02:21;;;;;;;2.55;1.60;;;12.70;84.70;;;;;;4972750;28;20053;-77
2024/03/27 00:04:46;;;;;;;2.45;1.50;;;12.70;84.70;;;;;;4972678;28;20027;-76
2024/03/27 00:07:12;;;;;;;2.72;1.67;;;12.60;84.70;;;;;;4971304;28;20026;-76
2024/03/27 00:09:37;;;;;;;2.75;1.65;;;12.60;84.70;;;;;;4970902;28;20066;-77
2024/03/27 00:12:03;;;;;;;2.53;1.50;;;12.60;85.20;;;;;;4970778;28;20615;-77
2024/03/27 00:14:29;;;;;;;2.95;1.70;;;12.70;84.80;;;;;;4972260;28;20558;-77
2024/03/27 00:16:54;;;;;;;2.80;1.70;;;12.70;84.80;;;;;;4974606;28;20022;-77
2024/03/27 00:19:21;;;;;;;2.28;1.45;;;12.60;84.80;;;;;;4974638;28;20033;-76
2024/03/27 00:21:46;;;;;;;2.92;1.75;;;12.70;84.80;;;;;;4975197;28;20039;-77
2024/03/27 00:24:12;;;;;;;3.08;1.80;;;12.60;85.30;;;;;;4974646;28;20019;-77
2024/03/27 00:26:39;;;;;;;2.55;1.60;;;12.60;84.80;;;;;;4974691;28;20042;-76
2024/03/27 00:29:04;;;;;;;3.08;1.90;;;12.60;84.80;;;;;;4975794;28;20030;-77
2024/03/27 00:31:30;;;;;;;2.75;1.70;;;12.60;84.70;;;;;;4975679;28;20498;-76
2024/03/27 00:33:57;;;;;;;3.28;1.65;;;12.60;84.70;;;;;;4975854;28;20034;-76
2024/03/27 00:36:23;;;;;;;2.70;1.50;;;12.60;84.80;;;;;;4975284;28;20050;-77
2024/03/27 00:38:48;;;;;;;2.95;1.60;;;12.70;84.80;;;;;;4975675;28;20579;-76
2024/03/27 00:41:14;;;;;;;3.00;1.60;;;12.70;84.90;;;;;;4975248;28;20030;-76
2024/03/27 00:43:40;;;;;;;3.35;1.73;;;12.70;84.90;;;;;;4975839;28;20054;-77
2024/03/27 00:46:06;;;;;;;2.75;1.52;;;12.50;85.20;;;;;;4975666;28;20035;-77
2024/03/27 00:48:32;;;;;;;3.38;1.70;;;12.70;84.80;;;;;;4974304;28;20023;-77
2024/03/27 00:50:59;;;;;;;3.25;1.70;;;12.60;84.80;;;;;;4975446;28;20057;-77
2024/03/27 00:53:25;;;;;;;2.25;1.48;;;12.50;84.70;;;;;;4975091;28;20035;-76
2024/03/27 00:56:01;;;;;;;2.85;1.60;;;12.60;84.80;;;;;;4973708;28;20033;-76
2024/03/27 00:58:28;;;;;;;3.67;1.73;;;12.60;84.80;;;;;;4964120;28;20077;-77
2024/03/27 01:00:54;;;;;;;2.97;1.80;;;12.60;84.80;;;;;;4973386;28;20023;-77
2024/03/27 01:03:20;;;;;;;3.30;1.90;;;12.60;84.80;;;;;;4992785;28;20129;-77
2024/03/27 01:05:46;;;;;;;2.78;1.85;;;12.70;84.80;;;;;;4993453;28;20046;-77
2024/03/27 01:08:12;;;;;;;4.05;1.92;;;12.60;84.80;;;;;;4994447;28;20050;-77
2024/03/27 01:10:38;;;;;;;2.78;1.60;;;12.70;84.80;;;;;;4994294;28;20022;-76
2024/03/27 01:13:07;;;;;;;2.95;1.70;;;12.70;84.90;;;;;;4992984;28;20027;-77
2024/03/27 01:15:33;;;;;;;2.55;1.63;;;12.60;84.80;;;;;;4994576;28;20662;-76
2024/03/27 01:17:59;;;;;;;2.97;1.60;;;12.70;84.90;;;;;;4992950;28;20038;-76
2024/03/27 01:20:26;;;;;;;3.72;1.90;;;12.60;84.90;;;;;;4993005;28;20027;-77
2024/03/27 01:22:52;;;;;;;3.05;1.70;;;12.50;84.80;;;;;;4993570;28;20130;-76
2024/03/27 01:25:18;;;;;;;2.90;1.80;;;12.60;84.90;;;;;;4994673;28;20113;-77
2024/03/27 01:27:44;;;;;;;3.10;1.88;;;12.70;84.90;;;;;;4993749;28;20022;-77
2024/03/27 01:30:10;;;;;;;2.55;1.60;;;12.70;84.90;;;;;;4993075;28;20093;-77
2024/03/27 01:32:36;;;;;;;2.97;1.80;;;12.60;84.90;;;;;;4994458;28;20065;-77
2024/03/27 01:35:02;;;;;;;3.35;1.90;;;12.60;84.90;;;;;;4993977;28;20033;-76
2024/03/27 01:37:27;;;;;;;2.90;1.65;;;12.60;84.90;;;;;;4994238;28;20026;-77
2024/03/27 01:39:53;;;;;;;3.13;1.85;;;12.70;85.50;;;;;;4992215;28;20022;-77
2024/03/27 01:42:19;;;;;;;3.55;1.83;;;12.60;84.90;;;;;;4994053;28;20483;-77
2024/03/27 01:44:44;;;;;;;2.67;1.70;;;12.60;84.90;;;;;;4993970;28;20514;-77
2024/03/27 01:47:14;;;;;;;3.13;1.70;;;12.60;84.90;;;;;;4992459;28;20027;-76
2024/03/27 01:49:40;;;;;;;3.15;1.88;;;12.50;84.80;;;;;;4993644;28;20046;-76
2024/03/27 01:52:06;;;;;;;3.22;1.80;;;12.60;84.90;;;;;;4993769;28;20034;-77
2024/03/27 01:54:32;;;;;;;3.50;1.80;;;12.70;84.90;;;;;;4993477;28;20057;-77
2024/03/27 01:56:59;;;;;;;3.53;1.73;;;12.50;84.90;;;;;;4994087;28;20026;-77
2024/03/27 01:59:28;;;;;;;3.50;1.70;;;12.60;85.00;;;;;;4992349;28;20372;-77
2024/03/27 02:01:55;;;;;;;3.75;1.90;;;12.60;85.00;;;;;;4993699;28;20038;-77
2024/03/27 02:04:20;;;;;;;2.90;1.70;;;12.60;84.90;;;;;;4992111;28;20030;-76
2024/03/27 02:06:47;;;;;;;3.17;2.00;;;12.70;85.00;;;;;;4992406;28;20475;-77
2024/03/27 02:09:12;;;;;;;3.95;1.63;;;12.60;84.90;;;;;;4992548;28;20022;-77
2024/03/27 02:11:40;;;;;;;3.05;1.83;;;12.60;84.90;;;;;;4993197;28;20049;-77
2024/03/27 02:14:05;;;;;;;3.50;1.80;;;12.60;85.00;;;;;;4992631;28;20030;-76
2024/03/27 02:16:31;;;;;;;3.45;2.05;;;12.60;84.90;;;;;;4993433;28;20033;-77
2024/03/27 02:18:56;;;;;;;3.55;1.90;;;12.60;84.90;;;;;;4992197;28;20033;-76
2024/03/27 02:21:23;;;;;;;2.88;1.77;;;12.60;84.90;;;;;;4992897;28;20483;-76
2024/03/27 02:24:10;;;;;;;2.92;1.90;;;12.60;84.90;;;;;;4993268;28;20076;-77
2024/03/27 02:26:37;;;;;;;2.90;1.65;;;12.60;85.00;;;;;;4993261;28;20469;-76
2024/03/27 02:29:04;;;;;;;3.05;1.70;;;12.70;84.90;;;;;;4992017;28;20117;-77
2024/03/27 02:31:29;;;;;;;3.17;1.85;;;12.60;84.90;;;;;;4992617;28;20026;-77
2024/03/27 02:33:55;;;;;;;2.97;1.70;;;12.60;84.90;;;;;;4991730;28;20395;-77
2024/03/27 02:36:21;;;;;;;3.15;1.73;;;12.60;84.90;;;;;;4993296;28;20038;-76
2024/03/27 02:38:46;;;;;;;3.63;2.00;;;12.60;84.90;;;;;;4991344;28;20120;-76
2024/03/27 02:41:12;;;;;;;2.97;1.85;;;12.60;84.90;;;;;;4993000;28;20023;-76
2024/03/27 02:43:37;;;;;;;3.10;1.85;;;12.60;84.90;;;;;;4992063;28;20462;-77
2024/03/27 02:46:03;;;;;;;3.40;1.70;;;12.60;84.90;;;;;;4984843;28;20431;-77
2024/03/27 02:48:29;;;;;;;3.88;1.90;;;12.60;85.00;;;;;;4973509;28;20058;-77
2024/03/27 02:50:54;;;;;;;2.97;1.70;;;12.60;85.50;;;;;;4972345;28;20035;-77
2024/03/27 02:53:20;;;;;;;3.60;1.70;;;12.60;85.00;;;;;;4971136;28;20037;-77
2024/03/27 02:55:49;;;;;;;3.10;2.00;;;12.60;85.10;;;;;;4973195;28;20392;-77
2024/03/27 02:58:14;;;;;;;3.38;1.95;;;12.60;85.10;;;;;;4972389;28;20027;-77
2024/03/27 03:00:40;;;;;;;3.58;1.88;;;12.60;85.00;;;;;;4972846;28;20023;-77
2024/03/27 03:03:05;;;;;;;3.03;1.80;;;12.50;85.10;;;;;;4971965;28;20033;-76
2024/03/27 03:05:31;;;;;;;2.72;1.80;;;12.50;85.00;;;;;;4973150;28;20061;-77
2024/03/27 03:07:56;;;;;;;3.33;1.92;;;12.60;85.00;;;;;;4973225;28;20792;-77
2024/03/27 03:10:22;;;;;;;3.47;1.77;;;12.50;85.00;;;;;;4971241;28;20402;-76
2024/03/27 03:12:48;;;;;;;3.53;1.90;;;12.60;85.10;;;;;;4971941;28;20697;-77
2024/03/27 03:15:13;;;;;;;2.92;1.90;;;12.60;85.10;;;;;;4971624;28;20026;-75
2024/03/27 03:17:39;;;;;;;3.67;2.05;;;12.50;85.00;;;;;;4972226;28;20118;-75
2024/03/27 03:20:06;;;;;;;3.17;1.77;;;12.60;85.00;;;;;;4987904;28;20030;-77
2024/03/27 03:22:32;;;;;;;3.03;1.80;;;12.60;85.00;;;;;;4973159;28;20031;-76
2024/03/27 03:24:58;;;;;;;3.83;1.83;;;12.50;85.60;;;;;;4972874;28;20030;-76
2024/03/27 03:27:24;;;;;;;3.40;1.88;;;12.60;85.10;;;;;;4971618;28;20114;-77
2024/03/27 03:29:50;;;;;;;3.45;1.80;;;12.60;85.10;;;;;;4971845;28;20034;-76
2024/03/27 03:32:15;;;;;;;3.83;2.00;;;12.50;85.00;;;;;;4973254;28;20035;-75
2024/03/27 03:34:41;;;;;;;2.83;1.80;;;12.60;85.10;;;;;;4971865;28;20034;-77
2024/03/27 03:37:06;;;;;;;3.25;1.80;;;12.60;85.10;;;;;;4973681;28;20023;-76
2024/03/27 03:39:32;;;;;;;2.70;1.63;;;12.60;85.10;;;;;;4972847;28;20073;-76
2024/03/27 03:41:57;;;;;;;3.60;2.10;;;12.60;85.10;;;;;;4971800;28;20126;-77
2024/03/27 03:44:23;;;;;;;3.38;1.63;;;12.70;85.10;;;;;;4973187;28;20023;-77
2024/03/27 03:46:49;;;;;;;3.20;1.90;;;12.50;85.00;;;;;;4973079;28;20030;-77
2024/03/27 03:49:15;;;;;;;2.95;1.67;;;12.70;85.10;;;;;;4971573;28;20037;-77
2024/03/27 03:51:42;;;;;;;3.63;2.00;;;12.60;85.10;;;;;;4976048;28;20518;-77
2024/03/27 03:54:08;;;;;;;2.95;1.80;;;12.70;85.20;;;;;;4976690;28;20518;-76
2024/03/27 03:56:34;;;;;;;3.10;1.88;;;12.50;85.10;;;;;;4974934;28;20118;-76
2024/03/27 03:59:00;;;;;;;3.10;1.70;;;12.50;85.10;;;;;;4975361;28;20487;-77
2024/03/27 04:01:26;;;;;;;2.60;1.70;;;12.60;85.10;;;;;;4975865;28;20034;-77
2024/03/27 04:03:52;;;;;;;3.28;1.90;;;12.60;85.10;;;;;;4975151;28;20018;-77
2024/03/27 04:06:17;;;;;;;3.20;1.90;;;12.60;85.20;;;;;;4976036;28;20423;-76
2024/03/27 04:08:43;;;;;;;2.42;1.60;;;12.60;85.10;;;;;;4976026;28;20062;-77
2024/03/27 04:11:09;;;;;;;2.95;1.88;;;12.60;85.10;;;;;;4975666;28;20030;-77
2024/03/27 04:13:34;;;;;;;2.88;1.70;;;12.50;85.10;;;;;;4976452;28;20034;-77
2024/03/27 04:16:02;;;;;;;3.53;2.05;;;12.60;85.10;;;;;;4974861;28;20471;-78
2024/03/27 04:18:28;;;;;;;3.63;1.90;;;12.60;85.10;;;;;;4975940;28;20027;-78
2024/03/27 04:20:54;;;;;;;3.25;1.88;;;12.60;85.10;;;;;;4972613;28;20026;-81
2024/03/27 04:23:19;;;;;;;3.58;1.90;;;12.60;85.10;;;;;;4971153;28;20022;-79
2024/03/27 04:25:49;;;;;;;3.10;1.83;;;12.60;85.10;;;;;;4973238;28;20066;-76
2024/03/27 04:28:15;;;;;;;3.55;2.00;;;12.60;85.10;;;;;;4972944;28;20030;-77
2024/03/27 04:30:42;;;;;;;3.47;1.92;;;12.60;85.10;;;;;;4958398;28;20027;-77
2024/03/27 04:33:09;;;;;;;3.03;1.65;;;12.60;85.10;;;;;;4952588;28;20138;-78
2024/03/27 04:35:35;;;;;;;3.03;1.88;;;12.50;85.10;;;;;;4953598;28;20024;-76
2024/03/27 04:38:00;;;;;;;3.08;1.67;;;12.50;85.10;;;;;;4953106;28;20019;-78
2024/03/27 04:40:26;;;;;;;2.72;1.63;;;12.60;85.20;;;;;;4951955;28;20031;-78
2024/03/27 04:42:52;;;;;;;3.28;1.80;;;12.60;85.20;;;;;;4951715;29;20118;-77
2024/03/27 04:45:17;;;;;;;2.90;1.90;;;12.60;85.20;;;;;;4951542;28;20291;-76
2024/03/27 04:47:43;;;;;;;3.83;2.08;;;12.60;85.20;;;;;;4951519;29;20031;-78
2024/03/27 04:50:09;;;;;;;2.60;1.70;;;12.60;85.20;;;;;;4950997;29;20031;-77
2024/03/27 04:52:35;;;;;;;3.35;1.83;;;12.60;85.10;;;;;;4953141;28;20554;-77
2024/03/27 04:55:05;;;;;;;3.28;1.90;;;12.60;85.20;;;;;;4952398;29;20085;-79
2024/03/27 04:57:31;;;;;;;3.53;1.70;;;12.60;85.20;;;;;;4952729;28;20726;-77
2024/03/27 04:59:57;;;;;;;3.58;1.85;;;12.60;85.20;;;;;;4954768;29;20019;-76
2024/03/27 05:02:23;;;;;;;3.55;2.00;;;12.50;85.10;;;;;;4956647;28;20034;-76
2024/03/27 05:04:49;;;;;;;2.97;1.77;;;12.60;85.20;;;;;;4955238;29;20027;-77
2024/03/27 05:07:15;;;;;;;3.35;1.98;;;12.60;85.10;;;;;;4955405;28;20027;-77
2024/03/27 05:09:41;;;;;;;3.15;1.70;;;12.50;85.10;;;;;;4956468;28;20094;-76
2024/03/27 05:12:07;;;;;;;2.97;1.73;;;12.60;85.20;;;;;;4956866;28;20035;-77
2024/03/27 05:14:32;;;;;;;3.17;1.80;;;12.60;85.20;;;;;;4955264;29;20484;-76
2024/03/27 05:16:58;;;;;;;2.88;1.60;;;12.60;85.20;;;;;;4955348;29;20031;-77
2024/03/27 05:19:24;;;;;;;3.38;1.90;;;12.60;85.20;;;;;;4956805;28;20034;-80
2024/03/27 05:21:53;;;;;;;3.20;1.90;;;12.60;85.20;;;;;;4954993;29;20512;-76
2024/03/27 05:24:19;;;;;;;3.17;1.75;;;12.60;85.20;;;;;;4956271;28;20563;-76
2024/03/27 05:26:46;;;;;;;3.38;1.90;;;12.50;85.10;;;;;;4956553;28;20118;-76
2024/03/27 05:29:12;;;;;;;2.92;1.90;;;12.60;85.20;;;;;;4955101;28;20031;-76
2024/03/27 05:31:51;;;;;;;3.30;1.80;;;12.60;85.20;;;;;;4956224;28;20031;-77
2024/03/27 05:34:18;;;;;;;3.58;1.90;;;12.60;85.30;;;;;;4955192;29;20126;-76
2024/03/27 05:36:44;;;;;;;3.05;1.73;;;12.60;85.30;;;;;;4955111;29;20150;-76
2024/03/27 05:39:10;;;;;;;3.33;1.83;;;12.60;85.30;;;;;;4954862;29;20140;-78
2024/03/27 05:41:37;;;;;;;2.85;1.80;;;12.60;85.20;;;;;;4956023;28;20050;-76
2024/03/27 05:44:03;;;;;;;3.70;2.00;;;12.50;85.10;;;;;;4955114;29;20051;-77
2024/03/27 05:46:29;;;;;;;3.13;1.80;;;12.60;85.10;;;;;;4956092;28;20059;-77
2024/03/27 05:48:55;;;;;;;3.75;1.90;;;12.60;85.10;;;;;;4956420;28;20810;-77
2024/03/27 05:51:23;;;;;;;2.72;1.60;;;12.50;85.00;;;;;;4954292;29;20499;-77
2024/03/27 05:53:49;;;;;;;6.85;2.42;;;12.60;85.10;;;;;;4956065;28;20098;-76
2024/03/27 05:56:14;;;;;;;11.35;4.40;;;12.60;85.00;;;;;;4954182;29;20027;-75
2024/03/27 05:58:40;;;;;;;11.98;5.07;;;12.50;83.60;;;;;;4954324;29;20127;-75
2024/03/27 06:01:05;;;;;;;21.65;6.68;;;12.50;82.80;;;;;;4955313;28;20038;-76
2024/03/27 06:03:31;;;;;;;19.17;6.38;;;12.40;82.40;;;;;;4953923;28;20020;-75
2024/03/27 06:05:57;;;;;;;17.10;5.60;;;12.50;82.30;;;;;;4953501;28;20132;-75
2024/03/27 06:08:22;;;;;;;14.02;6.28;;;12.30;82.20;;;;;;4953167;29;20054;-75
2024/03/27 06:10:48;;;;;;;17.52;5.53;;;12.50;82.30;;;;;;4954319;28;20034;-76
2024/03/27 06:13:13;;;;;;;20.48;6.72;;;12.50;82.30;;;;;;4953027;28;20038;-75
2024/03/27 06:15:39;;;;;;;12.55;6.07;;;12.40;82.20;;;;;;4954420;28;20117;-75
2024/03/27 06:18:05;;;;;;;14.73;6.28;;;12.50;82.30;;;;;;4954382;28;20031;-75
2024/03/27 06:20:32;;;;;;;10.30;5.45;;;12.50;82.30;;;;;;4954177;28;20048;-76
2024/03/27 06:22:58;;;;;;;9.02;5.60;;;12.40;82.20;;;;;;4954471;28;20024;-75
2024/03/27 06:25:24;;;;;;;9.43;5.60;;;12.40;82.20;;;;;;4953118;28;20108;-75
2024/03/27 06:27:49;;;;;;;9.02;5.80;;;12.50;82.30;;;;;;4952972;29;20488;-77
2024/03/27 06:30:15;;;;;;;9.20;5.65;;;12.50;82.30;;;;;;4952736;29;20034;-76
2024/03/27 06:32:42;;;;;;;10.40;5.35;;;12.50;82.20;;;;;;4954228;28;20125;-76
2024/03/27 06:35:08;;;;;;;9.98;5.50;;;12.60;82.30;;;;;;4953074;29;20038;-75
2024/03/27 06:37:34;;;;;;;8.77;5.50;;;12.50;82.30;;;;;;4954245;28;20023;-75
2024/03/27 06:40:00;;;;;;;10.55;6.07;;;12.50;82.20;;;;;;4952575;29;20062;-75
2024/03/27 06:42:26;;;;;;;10.02;5.65;;;12.50;82.30;;;;;;4952643;29;20526;-75
2024/03/27 06:44:52;;;;;;;10.38;5.60;;;12.50;82.30;;;;;;4953844;28;20492;-76
2024/03/27 06:47:26;;;;;;;8.40;5.50;;;12.60;82.30;;;;;;4952456;28;20061;-75
2024/03/27 06:49:52;;;;;;;8.50;5.18;;;12.40;82.20;;;;;;4953781;28;20034;-75
2024/03/27 06:52:19;;;;;;;9.10;4.80;;;12.60;82.20;;;;;;4953556;28;20444;-76
2024/03/27 06:54:48;;;;;;;8.88;5.30;;;12.50;82.10;;;;;;4953576;28;20110;-76
2024/03/27 06:57:17;;;;;;;11.88;5.30;;;12.60;81.90;;;;;;4953600;28;20042;-76
2024/03/27 06:59:42;;;;;;;11.13;5.43;;;12.70;81.90;;;;;;4952194;29;20018;-76
2024/03/27 07:02:08;;;;;;;10.10;5.50;;;12.70;81.90;;;;;;4952287;29;20400;-75
2024/03/27 07:04:33;;;;;;;9.23;5.43;;;12.70;81.70;;;;;;4952395;29;20018;-76
2024/03/27 07:06:59;;;;;;;8.18;5.20;;;12.80;81.60;;;;;;4954005;28;20030;-76
2024/03/27 07:09:25;;;;;;;9.35;5.50;;;12.70;81.60;;;;;;4952141;29;20769;-76
2024/03/27 07:11:51;;;;;;;9.30;5.50;;;12.70;81.50;;;;;;4952231;29;20032;-76
2024/03/27 07:14:17;;;;;;;9.25;5.60;;;12.80;81.60;;;;;;4952080;28;20023;-75
2024/03/27 07:16:43;;;;;;;12.18;5.80;;;12.70;81.60;;;;;;4953415;28;20079;-76
2024/03/27 07:19:09;;;;;;;8.25;5.10;;;12.70;81.70;;;;;;4953462;28;20035;-75
2024/03/27 07:21:36;;;;;;;8.40;5.55;;;12.70;81.60;;;;;;4952916;28;20122;-76
2024/03/27 07:24:02;;;;;;;8.25;5.25;;;12.70;81.60;;;;;;4953492;28;20106;-75
2024/03/27 07:26:27;;;;;;;8.18;5.18;;;12.70;81.60;;;;;;4956692;28;20467;-76
2024/03/27 07:28:53;;;;;;;8.63;5.63;;;12.60;81.70;;;;;;4957316;28;20059;-75
2024/03/27 07:31:18;;;;;;;7.95;5.28;;;12.60;81.40;;;;;;4957148;28;20480;-75
2024/03/27 07:33:44;;;;;;;8.65;5.63;;;12.80;81.60;;;;;;4956101;29;20027;-74
2024/03/27 07:36:09;;;;;;;9.30;5.97;;;12.80;81.60;;;;;;4957483;28;20231;-75
2024/03/27 07:38:35;;;;;;;8.23;5.40;;;12.80;81.70;;;;;;4955603;29;20046;-77
2024/03/27 07:41:00;;;;;;;8.40;5.43;;;12.80;81.40;;;;;;4956946;28;20479;-75
2024/03/27 07:43:26;;;;;;;7.90;5.38;;;12.80;81.50;;;;;;4957061;28;20091;-75
2024/03/27 07:45:51;;;;;;;9.50;5.43;;;12.80;81.30;;;;;;4955970;29;20059;-77
2024/03/27 07:48:17;;;;;;;10.57;5.18;;;12.90;81.40;;;;;;4955487;29;20035;-75
2024/03/27 07:50:43;;;;;;;9.60;5.20;;;12.90;81.10;;;;;;4956500;28;20023;-76
2024/03/27 07:53:08;;;;;;;12.30;5.25;;;12.90;81.30;;;;;;4955264;29;20062;-76
2024/03/27 07:55:34;;;;;;;8.90;5.20;;;13.00;81.50;;;;;;4955071;29;20027;-76
2024/03/27 07:57:59;;;;;;;7.50;5.05;;;12.80;81.20;;;;;;4955668;29;20023;-75
2024/03/27 08:00:25;;;;;;;8.75;5.50;;;12.90;81.30;;;;;;4955167;28;20031;-76
2024/03/27 08:02:51;;;;;;;9.95;5.63;;;12.80;81.40;;;;;;4956703;28;20110;-77
2024/03/27 08:05:17;;;;;;;8.15;5.25;;;12.90;81.50;;;;;;4955441;29;20586;-76
2024/03/27 08:07:42;;;;;;;7.38;4.80;;;12.80;81.50;;;;;;4955329;29;20032;-75
2024/03/27 08:10:09;;;;;;;7.75;5.13;;;12.80;81.60;;;;;;4955145;29;20058;-74
2024/03/27 08:12:34;;;;;;;8.15;4.93;;;12.80;81.60;;;;;;4956595;28;20102;-74
2024/03/27 08:15:00;;;;;;;8.98;5.38;;;12.80;81.60;;;;;;4955042;28;20170;-76
2024/03/27 08:17:25;;;;;;;8.20;5.22;;;12.80;81.70;;;;;;4955219;28;20115;-76
2024/03/27 08:19:51;;;;;;;8.07;4.90;;;12.80;81.60;;;;;;4954980;28;20027;-75
2024/03/27 08:22:17;;;;;;;8.07;4.72;;;12.90;81.80;;;;;;4956378;28;20035;-75
2024/03/27 08:24:42;;;;;;;11.07;5.20;;;12.80;81.80;;;;;;4954980;29;20110;-75
2024/03/27 08:27:08;;;;;;;7.90;5.07;;;12.90;81.70;;;;;;4956289;28;20054;-76
2024/03/27 08:29:34;;;;;;;7.65;4.85;;;12.90;81.80;;;;;;4956206;28;20112;-75
2024/03/27 08:32:00;;;;;;;8.52;4.80;;;12.80;81.70;;;;;;4956144;28;20023;-75
2024/03/27 08:34:27;;;;;;;8.02;4.95;;;12.90;81.70;;;;;;4954596;28;20026;-75
2024/03/27 08:36:54;;;;;;;8.52;5.63;;;12.90;81.60;;;;;;4955531;28;20074;-76
2024/03/27 08:39:21;;;;;;;9.93;5.30;;;12.90;81.50;;;;;;4955998;28;20531;-76
2024/03/27 08:41:47;;;;;;;8.95;5.05;;;12.90;81.40;;;;;;4955743;28;20053;-76
2024/03/27 08:44:16;;;;;;;7.53;5.03;;;13.00;81.50;;;;;;4954414;29;20779;-76
2024/03/27 08:46:42;;;;;;;7.38;4.53;;;13.00;81.60;;;;;;4956147;28;20036;-77
2024/03/27 08:49:12;;;;;;;7.30;4.90;;;13.00;81.40;;;;;;4954244;29;20569;-75
2024/03/27 08:51:37;;;;;;;8.30;4.97;;;13.00;81.30;;;;;;4953989;28;20031;-76
2024/03/27 08:54:03;;;;;;;7.40;4.68;;;13.00;81.30;;;;;;4955284;28;20054;-75
2024/03/27 08:56:28;;;;;;;9.13;4.70;;;13.10;81.20;;;;;;4955583;28;20042;-76
2024/03/27 08:58:54;;;;;;;8.20;4.57;;;13.00;81.10;;;;;;4955817;28;20032;-74
2024/03/27 09:01:20;;;;;;;7.35;5.10;;;13.00;81.10;;;;;;4955208;28;20118;-75
2024/03/27 09:03:47;;;;;;;7.13;4.78;;;13.00;81.10;;;;;;4955679;28;20023;-75
2024/03/27 09:06:13;;;;;;;8.05;4.50;;;13.10;81.10;;;;;;4955585;28;20023;-76
2024/03/27 09:08:39;;;;;;;8.13;4.25;;;13.10;81.20;;;;;;4955258;28;20109;-76
2024/03/27 09:11:07;;;;;;;6.82;4.32;;;13.10;81.10;;;;;;4954029;29;20031;-75
2024/03/27 09:13:33;;;;;;;7.57;4.22;;;13.10;81.20;;;;;;4954239;28;20039;-75
2024/03/27 09:16:01;;;;;;;6.80;4.57;;;13.20;81.10;;;;;;4955506;28;20035;-76
2024/03/27 09:18:28;;;;;;;8.15;4.57;;;13.10;81.00;;;;;;4955297;28;20484;-75
2024/03/27 09:21:02;;;;;;;6.53;4.10;;;13.20;81.00;;;;;;4954988;28;20065;-76
2024/03/27 09:23:28;;;;;;;6.78;3.85;;;13.20;80.80;;;;;;4954970;28;20102;-76
2024/03/27 09:26:00;;;;;;;8.65;4.30;;;13.20;80.80;;;;;;4953497;28;20038;-77
2024/03/27 09:28:26;;;;;;;6.95;4.32;;;13.30;80.80;;;;;;4953846;29;20031;-75
2024/03/27 09:30:52;;;;;;;6.53;4.10;;;13.30;80.80;;;;;;4954844;28;20458;-75
2024/03/27 09:33:18;;;;;;;6.50;3.60;;;13.30;80.80;;;;;;4953826;28;20118;-75
2024/03/27 09:35:45;;;;;;;9.00;3.92;;;13.30;80.80;;;;;;4953641;29;20054;-76
2024/03/27 09:38:11;;;;;;;7.75;4.05;;;13.30;80.80;;;;;;4954834;28;20035;-75
2024/03/27 09:40:40;;;;;;;7.70;4.00;;;13.30;80.80;;;;;;4953619;29;20030;-75
2024/03/27 09:43:06;;;;;;;7.80;4.03;;;13.30;80.80;;;;;;4954990;28;20480;-76
2024/03/27 09:45:34;;;;;;;10.40;4.05;;;13.30;80.80;;;;;;4953427;28;20133;-76
2024/03/27 09:48:01;;;;;;;9.27;3.70;;;13.20;80.70;;;;;;4953903;28;20108;-76
2024/03/27 09:50:30;;;;;;;6.80;3.60;;;13.30;80.80;;;;;;4953244;28;20027;-75
2024/03/27 09:52:57;;;;;;;6.97;3.65;;;13.40;80.80;;;;;;4954677;28;20050;-76
2024/03/27 09:55:23;;;;;;;6.82;3.50;;;13.30;80.60;;;;;;4954165;28;20527;-75
2024/03/27 09:57:49;;;;;;;9.27;4.00;;;13.40;80.60;;;;;;4953565;28;20059;-74
2024/03/27 10:00:15;;;;;;;9.57;3.40;;;13.40;80.60;;;;;;4954416;28;20110;-76
2024/03/27 10:02:40;;;;;;;7.93;4.00;;;13.30;80.50;;;;;;4954590;28;20019;-75
2024/03/27 10:05:10;;;;;;;6.68;3.50;;;13.30;80.50;;;;;;4953198;29;20038;-77
2024/03/27 10:07:36;;;;;;;6.50;3.67;;;13.40;80.60;;;;;;4953328;29;20062;-75
2024/03/27 10:10:03;;;;;;;7.68;3.58;;;13.40;80.60;;;;;;4953528;28;20397;-75
2024/03/27 10:12:28;;;;;;;6.40;3.53;;;13.30;80.60;;;;;;4954592;28;20051;-76
2024/03/27 10:14:54;;;;;;;6.22;3.67;;;13.30;80.60;;;;;;4954563;28;20027;-75
2024/03/27 10:17:19;;;;;;;5.72;3.40;;;13.30;80.60;;;;;;4953102;29;20035;-75
2024/03/27 10:19:45;;;;;;;7.93;3.63;;;13.40;80.70;;;;;;4952664;29;20396;-76
2024/03/27 10:22:11;;;;;;;7.38;3.88;;;13.30;80.80;;;;;;4954088;28;20035;-75
2024/03/27 10:24:37;;;;;;;7.97;3.60;;;13.30;80.80;;;;;;4954150;28;20058;-76
2024/03/27 10:27:03;;;;;;;6.63;3.60;;;13.30;80.80;;;;;;4954064;28;20031;-76
2024/03/27 10:29:28;;;;;;;7.20;3.30;;;13.30;80.90;;;;;;4953995;28;20567;-75
2024/03/27 10:31:54;;;;;;;7.28;3.40;;;13.30;80.90;;;;;;4953887;28;20069;-76
2024/03/27 10:34:20;;;;;;;6.22;3.30;;;13.30;81.00;;;;;;4952810;29;20031;-76
2024/03/27 10:36:49;;;;;;;5.97;3.50;;;13.30;81.00;;;;;;4953766;28;20114;-75
2024/03/27 10:39:16;;;;;;;6.80;3.33;;;13.30;81.00;;;;;;4952812;29;20094;-74
2024/03/27 10:41:42;;;;;;;7.00;3.40;;;13.30;80.90;;;;;;4953662;28;20106;-75
2024/03/27 10:44:11;;;;;;;6.60;3.33;;;13.30;80.80;;;;;;4953782;28;20110;-75
2024/03/27 10:46:39;;;;;;;6.30;3.10;;;13.40;80.90;;;;;;4953932;28;20031;-75
2024/03/27 10:49:06;;;;;;;5.25;3.08;;;13.30;80.80;;;;;;4953745;28;20054;-75
2024/03/27 10:51:33;;;;;;;6.28;3.28;;;13.30;80.90;;;;;;4953531;28;20114;-76
2024/03/27 10:54:01;;;;;;;6.03;2.97;;;13.30;81.00;;;;;;4953313;28;20031;-76
2024/03/27 10:56:27;;;;;;;5.43;3.00;;;13.30;80.80;;;;;;4953696;28;20129;-75
2024/03/27 10:58:53;;;;;;;5.10;3.03;;;13.40;80.80;;;;;;4952155;28;20102;-76
2024/03/27 11:01:20;;;;;;;5.72;3.30;;;13.40;80.80;;;;;;4952162;29;20562;-76
2024/03/27 11:03:50;;;;;;;5.85;2.95;;;13.40;80.70;;;;;;4953555;28;20096;-76
2024/03/27 11:06:17;;;;;;;5.45;3.17;;;13.40;80.60;;;;;;4952116;29;20122;-75
2024/03/27 11:08:44;;;;;;;5.03;2.90;;;13.50;80.70;;;;;;4953504;28;20066;-76
2024/03/27 11:11:13;;;;;;;6.05;3.00;;;13.40;80.70;;;;;;4951601;29;20026;-76
2024/03/27 11:13:44;;;;;;;6.72;3.28;;;13.40;80.80;;;;;;4953221;28;20037;-75
2024/03/27 11:16:11;;;;;;;5.15;2.90;;;13.50;80.80;;;;;;4951923;29;20054;-75
2024/03/27 11:18:37;;;;;;;5.93;3.15;;;13.30;80.80;;;;;;4951760;29;20035;-76
2024/03/27 11:21:03;;;;;;;5.57;2.88;;;13.40;81.10;;;;;;4952859;28;20086;-74
2024/03/27 11:23:30;;;;;;;5.93;3.00;;;13.30;81.20;;;;;;4952070;28;20574;-76
2024/03/27 11:25:58;;;;;;;5.20;3.00;;;13.30;81.50;;;;;;4953044;28;20031;-75
2024/03/27 11:28:24;;;;;;;5.25;3.00;;;13.30;81.50;;;;;;4953176;28;20070;-75
2024/03/27 11:30:50;;;;;;;5.43;2.83;;;13.30;81.80;;;;;;4952873;28;20050;-76
2024/03/27 11:33:16;;;;;;;5.97;3.17;;;13.20;81.70;;;;;;4953154;28;20023;-76
2024/03/27 11:35:42;;;;;;;5.88;3.10;;;13.20;81.70;;;;;;4953172;28;20115;-76
2024/03/27 11:38:08;;;;;;;6.00;3.00;;;13.20;81.80;;;;;;4951838;28;20032;-77
2024/03/27 11:40:34;;;;;;;5.20;2.58;;;13.20;81.80;;;;;;4952985;28;20050;-75
2024/03/27 11:43:02;;;;;;;5.38;2.60;;;13.20;81.80;;;;;;4953115;28;20586;-75
2024/03/27 11:45:28;;;;;;;5.05;2.65;;;13.20;81.90;;;;;;4951946;29;20059;-73
2024/03/27 11:47:54;;;;;;;5.57;3.08;;;13.20;82.00;;;;;;4979419;28;20057;-76
2024/03/27 11:50:22;;;;;;;4.78;3.00;;;13.20;81.90;;;;;;4991503;28;20038;-75
2024/03/27 11:52:48;;;;;;;5.18;2.90;;;13.20;82.00;;;;;;4991771;28;20026;-76
2024/03/27 11:55:14;;;;;;;4.55;2.70;;;13.20;82.00;;;;;;4991401;28;20026;-75
2024/03/27 11:57:40;;;;;;;5.50;2.53;;;13.20;82.00;;;;;;4991992;28;20036;-76
2024/03/27 12:00:12;;;;;;;5.07;2.70;;;13.20;82.00;;;;;;4990166;28;20117;-76
2024/03/27 12:02:41;;;;;;;4.70;2.55;;;13.20;82.00;;;;;;4991401;28;20034;-74
2024/03/27 12:05:08;;;;;;;5.30;2.83;;;13.10;82.10;;;;;;4990423;28;20030;-75
2024/03/27 12:07:34;;;;;;;5.07;2.60;;;13.20;82.10;;;;;;4990474;28;20034;-75
2024/03/27 12:10:01;;;;;;;4.45;2.63;;;13.20;82.20;;;;;;4991328;28;20022;-75
2024/03/27 12:12:28;;;;;;;4.88;2.83;;;13.20;82.20;;;;;;4993335;28;20570;-75
2024/03/27 12:14:57;;;;;;;5.38;2.70;;;13.20;82.30;;;;;;5010332;28;20035;-75
2024/03/27 12:17:37;;;;;;;5.10;2.90;;;13.20;82.80;;;;;;5010622;28;20414;-75
2024/03/27 12:20:04;;;;;;;5.05;2.63;;;13.20;82.30;;;;;;4995332;28;20027;-76
2024/03/27 12:22:30;;;;;;;6.40;2.97;;;13.20;82.30;;;;;;4993700;28;20517;-74
2024/03/27 12:24:56;;;;;;;4.80;2.70;;;13.20;82.40;;;;;;4993799;28;20080;-75
2024/03/27 12:27:31;;;;;;;4.90;2.47;;;13.10;82.30;;;;;;4994949;28;20027;-75
2024/03/27 12:29:57;;;;;;;5.72;2.40;;;13.20;82.30;;;;;;4994806;28;20801;-76
2024/03/27 12:32:27;;;;;;;5.55;2.63;;;13.20;82.20;;;;;;4993821;28;20117;-75
2024/03/27 12:34:53;;;;;;;4.40;2.45;;;13.20;82.20;;;;;;4995187;28;20026;-76
2024/03/27 12:37:19;;;;;;;5.13;3.00;;;13.20;82.10;;;;;;4994755;28;20181;-75
2024/03/27 12:39:44;;;;;;;5.05;2.90;;;13.30;82.10;;;;;;4994438;28;20123;-76
2024/03/27 12:42:10;;;;;;;5.00;2.70;;;13.30;82.00;;;;;;4994728;28;20022;-74